Latest Weather Observations for Pearce

IDW60801

Issued at 9:43 pm WST Wednesday 8 July 2020 (issued every 10 minutes, with the page automatically refreshed every 10 minutes)

About weather observations | Map of weather stations | Latest weather observations for WA | Other Formats
Station Details ID: 009053 Name: PEARCE RAAF Lat: -31.67 Lon: 116.02 Height: 40.0 m
Data from the previous 72 hours. | See also: Recent months at Pearce
Date/Time
WST
Temp
°C
App
Temp
°C
Dew
Point
°C
Rel
Hum
%
Delta-T
°C
Wind Press
QNH
hPa
Press
MSL
hPa
Rain since
9am
mm
Dir  Spd
km/h
Gust
km/h
Spd
kts
Gust
kts
08/09:30pm 9.1 8.6 7.9 92 0.6 CALM 0 0 0 0 1024.3 1024.3 0.0
08/09:00pm 9.8 8.2 8.6 92 0.6 NNE 7 9 4 5 1024.2 1024.2 0.0
08/08:30pm 9.5 9.1 8.1 91 0.7 CALM 0 0 0 0 1024.2 1024.2 0.0
08/08:00pm 10.1 9.8 8.7 91 0.7 CALM 0 0 0 0 1024.1 1024.1 0.0
08/07:30pm 11.1 11.1 9.7 91 0.7 CALM 0 0 0 0 1023.8 1023.8 0.0
08/07:00pm 11.5 11.5 9.9 90 0.8 CALM 0 0 0 0 1023.8 1023.8 0.0
08/06:30pm 12.2 12.3 10.3 88 1.0 CALM 0 0 0 0 1023.5 1023.5 0.0
08/06:00pm 12.8 13.0 10.5 86 1.2 CALM 0 0 0 0 1023.4 1023.4 0.0
08/05:30pm 13.5 13.8 11.0 85 1.3 CALM 0 0 0 0 1023.3 1023.3 0.0
08/05:00pm 13.7 14.1 11.2 85 1.3 CALM 0 6 0 3 1023.4 1023.4 0.0
08/04:30pm 13.6 12.7 11.3 86 1.2 NW 7 9 4 5 1023.4 1023.4 0.0
08/04:00pm 13.8 14.3 11.5 86 1.2 CALM 0 0 0 0 1023.2 1023.2 0.0
08/03:30pm 13.4 11.8 11.5 88 1.0 N 11 13 6 7 1022.8 1022.8 0.0
08/03:00pm 13.0 12.3 11.4 90 0.8 SE 6 9 3 5 1023.1 1023.1 0.0
08/02:30pm 13.3 11.1 10.7 84 1.4 S 13 17 7 9 1023.2 1023.2 0.0
08/02:00pm 13.9 10.4 10.9 82 1.6 WSW 20 28 11 15 1023.3 1023.3 0.0
08/01:30pm 15.4 13.4 10.0 70 2.8 WSW 11 30 6 16 1023.2 1023.2 0.0
08/01:00pm 16.6 16.1 9.3 62 3.8 SSE 2 9 1 5 1023.3 1023.3 0.0
08/12:30pm 16.4 14.6 8.1 58 4.2 SSW 7 11 4 6 1023.6 1023.6 0.0
08/12:00pm 16.6 15.0 8.8 60 4.0 WSW 7 11 4 6 1024.2 1024.2 0.0
08/11:30am 16.3 14.4 9.0 62 3.8 NW 9 11 5 6 1024.6 1024.6 0.0
08/11:00am 15.9 14.2 10.0 68 3.1 NNW 9 11 5 6 1024.8 1024.8 0.0
08/10:30am 15.2 14.2 12.2 82 1.6 N 9 11 5 6 1025.1 1025.1 0.0
08/10:00am 13.4 12.5 11.3 87 1.1 NNW 7 9 4 5 1025.2 1025.2 0.0
08/09:30am 12.7 11.9 10.9 89 0.9 WNW 6 7 3 4 1025.1 1025.1 0.0
08/09:00am 12.6 13.0 11.2 91 0.7 CALM 0 0 0 0 1024.8 1024.8 4.6
08/08:30am 12.2 12.5 10.9 92 0.7 CALM 0 0 0 0 1024.5 1024.5 4.6
08/08:00am 11.8 10.7 10.5 92 0.7 NE 7 11 4 6 1024.0 1024.0 4.6
08/07:30am 11.4 11.5 10.1 92 0.7 CALM 0 0 0 0 1023.7 1023.7 4.6
08/07:00am 11.5 10.4 10.1 91 0.7 N 6 7 3 4 1023.5 1023.5 4.6
08/06:30am 12.1 10.6 10.7 91 0.7 NE 9 13 5 7 1023.2 1023.2 4.6
08/06:00am 12.0 10.9 10.7 92 0.7 ENE 7 9 4 5 1023.1 1023.1 4.6
08/05:30am 12.2 11.2 11.1 93 0.6 ENE 7 9 4 5 1023.1 1023.1 4.6
08/05:00am 12.2 10.9 11.1 93 0.6 E 9 11 5 6 1023.1 1023.1 4.6
08/04:30am 12.2 11.2 11.1 93 0.6 NNW 7 9 4 5 1023.1 1023.1 4.6
08/04:00am 12.3 11.0 11.2 93 0.6 N 9 11 5 6 1023.0 1023.0 4.6
08/03:30am 12.4 12.4 11.1 92 0.7 ENE 2 6 1 3 1023.0 1023.0 4.6
08/03:00am 12.5 11.6 11.4 93 0.6 E 7 9 4 5 1022.8 1022.8 4.6
08/02:30am 12.5 12.6 11.6 94 0.5 E 2 9 1 5 1022.6 1022.6 4.4
08/02:00am 12.2 12.6 11.1 93 0.6 CALM 0 0 0 0 1022.8 1022.8 4.4
08/01:30am 12.4 11.7 11.5 94 0.5 E 6 9 3 5 1022.7 1022.7 4.4
08/01:04am 12.2 10.9 11.1 93 0.6 E 9 11 5 6 1022.6 1022.6 4.4
08/01:00am 12.3 11.0 11.4 94 0.5 ESE 9 11 5 6 1022.7 1022.7 4.4
08/12:30am 11.7 10.2 10.6 93 0.6 WNW 9 19 5 10 1023.0 1023.0 3.6
08/12:03am 11.7 9.8 10.6 93 0.6 N 11 13 6 7 1022.6 1022.6 1.6
08/12:00am 11.8 10.0 10.7 93 0.6 NNW 11 13 6 7 1022.7 1022.7 1.6
 
Date/Time
WST
Temp
°C
App
Temp
°C
Dew
Point
°C
Rel
Hum
%
Delta-T
°C
Wind Press
QNH
hPa
Press
MSL
hPa
Rain since
9am
mm
Dir  Spd
km/h
Gust
km/h
Spd
kts
Gust
kts
07/11:56pm 11.8 10.0 10.7 93 0.6 NNW 11 13 6 7 1022.7 1022.7 1.6
07/11:43pm 11.8 9.9 10.5 92 0.7 NW 11 13 6 7 1022.8 1022.8 1.4
07/11:30pm 11.7 10.2 10.4 92 0.7 W 9 13 5 7 1022.8 1022.8 1.4
07/11:00pm 11.8 9.9 10.5 92 0.7 N 11 13 6 7 1022.5 1022.5 1.4
07/10:30pm 11.7 8.6 10.4 92 0.7 N 17 20 9 11 1022.5 1022.5 1.4
07/10:00pm 11.4 9.4 10.1 92 0.7 N 11 13 6 7 1022.8 1022.8 1.4
07/09:30pm 11.7 9.4 10.4 92 0.7 N 13 17 7 9 1022.9 1022.9 1.4
07/09:00pm 12.1 9.9 10.8 92 0.7 N 13 15 7 8 1022.9 1022.9 1.4
07/08:30pm 12.5 11.2 11.2 92 0.7 N 9 13 5 7 1022.8 1022.8 1.4
07/08:00pm 12.7 10.6 11.3 91 0.7 N 13 19 7 10 1022.6 1022.6 1.4
07/07:30pm 13.3 11.4 11.7 90 0.9 NNW 13 17 7 9 1022.5 1022.5 1.2
07/07:00pm 12.8 11.2 11.4 91 0.7 NNW 11 13 6 7 1022.6 1022.6 1.2
07/06:51pm 12.8 11.9 11.4 91 0.7 NW 7 11 4 6 1022.5 1022.5 1.2
07/06:39pm 12.5 11.2 11.1 91 0.7 W 9 13 5 7 1022.4 1022.4 1.2
07/06:30pm 12.8 11.5 11.4 91 0.7 N 9 13 5 7 1022.4 1022.4 0.6
07/06:00pm 12.6 10.8 11.0 90 0.8 N 11 13 6 7 1022.0 1022.0 0.6
07/05:30pm 13.2 12.2 11.1 87 1.1 WNW 7 9 4 5 1021.8 1021.8 0.6
07/05:06pm 13.8 12.9 11.5 86 1.2 W 7 11 4 6 1022.1 1022.1 0.6
07/05:00pm 13.8 12.5 11.3 85 1.3 W 9 15 5 8 1022.2 1022.2 0.6
07/04:49pm 14.0 11.0 10.8 81 1.7 WSW 17 24 9 13 1022.4 1022.4 0.6
07/04:30pm 15.1 11.9 11.1 77 2.1 WNW 19 22 10 12 1022.1 1022.1 0.6
07/04:00pm 15.4 14.0 12.2 81 1.7 WSW 11 15 6 8 1022.3 1022.3 0.6
07/03:30pm 14.8 11.6 11.9 83 1.6 WSW 20 32 11 17 1022.2 1022.2 0.6
07/03:00pm 16.5 13.8 10.4 67 3.2 WSW 15 20 8 11 1021.8 1021.8 0.6
07/02:30pm 16.5 13.1 10.4 67 3.2 W 19 28 10 15 1021.9 1021.9 0.6
07/02:00pm 17.4 14.2 11.4 68 3.3 WSW 19 24 10 13 1021.9 1021.9 0.6
07/01:41pm 17.1 14.3 12.6 75 2.5 WSW 19 26 10 14 1022.0 1022.0 0.6
07/01:30pm 16.1 12.8 11.7 75 2.4 WSW 20 28 11 15 1022.1 1022.1 0.6
07/01:00pm 15.4 13.6 12.0 80 1.8 WSW 13 20 7 11 1022.4 1022.4 0.6
07/12:40pm 14.5 11.7 12.5 88 1.1 SW 19 24 10 13 1022.7 1022.7 0.6
07/12:30pm 13.6 9.4 11.1 85 1.3 WSW 24 39 13 21 1023.0 1023.0 0.6
07/12:27pm 13.7 8.7 10.9 83 1.5 WSW 28 39 15 21 1023.0 1023.0 0.4
07/12:00pm 16.4 13.9 10.9 70 2.9 W 15 24 8 13 1022.9 1022.9 0.4
07/11:30am 14.7 13.4 12.4 86 1.3 W 11 13 6 7 1023.6 1023.6 0.4
07/11:15am 14.2 12.5 12.4 89 1.0 WNW 13 19 7 10 1023.8 1023.8 0.4
07/11:00am 13.6 10.4 11.8 89 1.0 WNW 20 30 11 16 1024.0 1024.0 0.4
07/10:54am 13.6 10.3 11.7 88 1.0 NW 20 26 11 14 1023.9 1023.9 0.4
07/10:30am 13.7 9.3 11.8 88 1.0 NNW 26 30 14 16 1023.8 1023.8 0.0
07/10:00am 14.1 12.4 11.3 83 1.5 N 11 17 6 9 1023.8 1023.8 0.0
07/09:30am 13.7 12.9 11.6 87 1.1 NNW 7 11 4 6 1023.8 1023.8 0.0
07/09:00am 13.2 11.9 11.4 89 1.0 N 9 13 5 7 1023.5 1023.5 0.6
07/08:30am 12.4 10.3 11.1 92 0.7 N 13 19 7 10 1023.2 1023.2 0.6
07/08:04am 11.8 9.1 10.5 92 0.7 N 15 17 8 9 1023.1 1023.1 0.6
07/08:00am 11.8 9.1 10.5 92 0.7 N 15 19 8 10 1023.1 1023.1 0.6
07/07:43am 12.0 9.4 10.6 91 0.7 N 15 19 8 10 1023.0 1023.0 0.6
07/07:30am 12.1 10.3 10.8 92 0.7 NNW 11 15 6 8 1022.9 1022.9 0.6
07/07:00am 12.1 9.9 10.8 92 0.7 N 13 17 7 9 1022.4 1022.4 0.4
07/06:30am 11.9 11.2 10.1 89 0.9 NE 4 11 2 6 1022.2 1022.2 0.4
07/06:00am 11.9 9.9 10.1 89 0.9 NE 11 15 6 8 1021.6 1021.6 0.4
07/05:30am 11.6 9.9 9.9 89 0.9 N 9 11 5 6 1021.7 1021.7 0.4
07/05:00am 10.3 8.3 8.7 90 0.8 NNW 9 11 5 6 1021.6 1021.6 0.4
07/04:30am 10.1 8.0 8.4 89 0.8 N 9 13 5 7 1021.2 1021.2 0.4
07/04:00am 9.9 8.0 6.8 81 1.5 NNE 6 7 3 4 1021.1 1021.1 0.4
07/03:30am 11.8 9.4 8.8 82 1.5 NNE 11 13 6 7 1021.2 1021.2 0.4
07/03:00am 11.0 8.9 8.2 83 1.4 N 9 13 5 7 1021.1 1021.1 0.4
07/02:30am 11.1 9.0 8.3 83 1.4 NNW 9 15 5 8 1021.1 1021.1 0.4
07/02:00am 11.3 8.5 8.5 83 1.4 NNW 13 17 7 9 1021.2 1021.2 0.4
07/01:30am 11.7 9.2 8.2 79 1.7 N 11 17 6 9 1020.9 1020.9 0.4
07/01:00am 12.9 12.0 9.4 79 1.8 SSW 4 9 2 5 1020.8 1020.8 0.4
07/12:30am 11.5 9.2 8.9 84 1.3 NW 11 20 6 11 1021.0 1021.0 0.4
07/12:00am 11.5 9.1 8.7 83 1.4 N 11 15 6 8 1021.0 1021.0 0.4
 
Date/Time
WST
Temp
°C
App
Temp
°C
Dew
Point
°C
Rel
Hum
%
Delta-T
°C
Wind Press
QNH
hPa
Press
MSL
hPa
Rain since
9am
mm
Dir  Spd
km/h
Gust
km/h
Spd
kts
Gust
kts
06/11:30pm 11.9 8.8 8.9 82 1.5 N 15 19 8 10 1021.1 1021.1 0.4
06/11:00pm 12.1 8.7 9.1 82 1.5 N 17 19 9 10 1021.1 1021.1 0.4
06/10:30pm 12.3 9.2 9.0 80 1.7 N 15 19 8 10 1020.9 1020.9 0.4
06/10:00pm 11.9 8.8 8.9 82 1.5 N 15 19 8 10 1020.8 1020.8 0.4
06/09:30pm 12.4 9.0 9.2 81 1.6 N 17 19 9 10 1020.8 1020.8 0.4
06/09:00pm 13.2 10.3 9.8 80 1.7 N 15 20 8 11 1020.9 1020.9 0.4
06/08:30pm 13.5 12.2 10.1 80 1.8 NNW 7 13 4 7 1020.9 1020.9 0.4
06/08:00pm 13.2 10.4 10.0 81 1.6 N 15 17 8 9 1020.6 1020.6 0.2
06/07:30pm 13.9 11.2 8.9 72 2.5 NNW 13 17 7 9 1020.4 1020.4 0.2
06/07:00pm 13.9 10.8 8.7 71 2.6 NNW 15 17 8 9 1020.0 1020.0 0.2
06/06:30pm 14.3 10.4 8.5 68 2.9 NNW 19 24 10 13 1019.7 1019.7 0.2
06/06:00pm 15.2 11.0 8.4 64 3.4 NW 20 24 11 13 1019.4 1019.4 0.2
06/05:30pm 15.9 11.8 8.6 62 3.7 NW 20 30 11 16 1019.0 1019.0 0.2
06/05:00pm 16.4 10.7 8.4 59 4.1 NW 28 41 15 22 1018.5 1018.5 0.2
06/04:30pm 17.1 12.1 9.5 61 4.0 WNW 26 33 14 18 1018.4 1018.4 0.2
06/04:00pm 17.7 11.0 7.4 51 5.2 WNW 32 44 17 24 1018.1 1018.1 0.2
06/03:30pm 17.6 11.0 8.7 56 4.6 NW 33 44 18 24 1017.8 1017.8 0.2
06/03:16pm 18.1 11.6 8.1 52 5.1 NW 32 50 17 27 1017.7 1017.7 0.2
06/03:00pm 17.5 10.0 7.8 53 4.9 WNW 37 46 20 25 1017.6 1017.6 0.0
06/02:30pm 18.6 11.3 7.4 48 5.7 NW 35 44 19 24 1017.5 1017.5 0.0
06/02:00pm 18.3 11.5 9.4 56 4.7 WNW 35 50 19 27 1017.5 1017.5 0.0
06/01:30pm 18.0 11.4 9.9 59 4.3 WNW 35 48 19 26 1017.5 1017.5 0.0
06/01:00pm 18.3 11.7 9.9 58 4.5 WNW 35 44 19 24 1017.4 1017.4 0.0
06/12:30pm 18.4 12.3 9.7 57 4.6 WNW 32 44 17 24 1017.7 1017.7 0.0
06/12:00pm 18.4 12.1 8.9 54 4.9 WNW 32 41 17 22 1017.8 1017.8 0.0
06/11:30am 17.3 11.2 9.7 61 4.0 NW 32 44 17 24 1018.0 1018.0 0.0
06/11:00am 18.6 13.0 8.6 52 5.2 NW 28 39 15 21 1018.0 1018.0 0.0
06/10:30am 17.7 12.7 10.8 64 3.7 NW 28 33 15 18 1018.1 1018.1 0.0
06/10:00am 16.8 13.0 11.1 69 3.1 NNW 22 28 12 15 1018.2 1018.2 0.0
06/09:30am 16.3 12.6 11.5 73 2.6 NNW 22 30 12 16 1018.0 1018.0 0.0
06/09:00am 14.8 11.8 11.8 82 1.6 N 19 24 10 13 1017.6 1017.6 0.4
06/08:30am 14.1 10.7 11.4 84 1.4 N 20 26 11 14 1017.3 1017.3 0.4
06/08:00am 13.4 11.0 11.3 87 1.1 N 15 22 8 12 1016.9 1016.9 0.4
06/07:30am 12.7 9.8 11.1 90 0.8 N 17 19 9 10 1016.5 1016.5 0.4
06/07:00am 12.5 9.6 11.1 91 0.7 N 17 19 9 10 1016.3 1016.3 0.4
06/06:30am 13.0 10.2 11.4 90 0.8 NNW 17 24 9 13 1016.1 1016.1 0.4
06/06:00am 13.0 10.9 11.2 89 0.9 N 13 15 7 8 1015.6 1015.6 0.4
06/05:30am 12.7 10.5 10.9 89 0.9 N 13 17 7 9 1015.4 1015.4 0.4
06/05:00am 13.6 11.2 11.5 87 1.1 NNW 15 20 8 11 1015.5 1015.5 0.4
06/04:30am 14.2 11.9 11.7 85 1.3 NNW 15 19 8 10 1015.3 1015.3 0.4
06/04:00am 14.8 11.6 11.8 82 1.6 N 20 28 11 15 1015.2 1015.2 0.4
06/03:30am 14.7 12.2 12.2 85 1.4 N 17 20 9 11 1015.2 1015.2 0.4
06/03:00am 14.5 12.9 12.7 89 1.0 N 13 15 7 8 1015.5 1015.5 0.4
06/02:30am 14.5 13.0 13.0 91 0.8 NW 13 17 7 9 1015.4 1015.4 0.4
06/02:00am 13.8 12.8 12.2 90 0.9 NNW 9 11 5 6 1015.0 1015.0 0.4
06/01:30am 15.3 14.5 12.8 85 1.4 NNE 9 11 5 6 1014.7 1014.7 0.4
06/01:00am 15.1 14.7 13.1 88 1.1 NE 7 11 4 6 1015.2 1015.2 0.4
06/12:30am 15.3 15.0 13.2 87 1.2 NE 7 13 4 7 1015.4 1015.4 0.4
06/12:00am 15.7 16.8 13.4 86 1.3 CALM 0 4 0 2 1015.9 1015.9 0.2
 
Date/Time
WST
Temp
°C
App
Temp
°C
Dew
Point
°C
Rel
Hum
%
Delta-T
°C
Wind Press
QNH
hPa
Press
MSL
hPa
Rain since
9am
mm
Dir  Spd
km/h
Gust
km/h
Spd
kts
Gust
kts
05/11:30pm 15.7 16.3 13.2 85 1.4 SW 2 7 1 4 1016.0 1016.0 0.2
05/11:00pm 15.7 16.8 13.4 86 1.3 CALM 0 6 0 3 1016.5 1016.5 0.2
05/10:30pm 16.0 14.4 14.0 88 1.1 SW 15 22 8 12 1016.5 1016.5 0.2
05/10:06pm 16.0 15.1 13.7 86 1.3 W 11 15 6 8 1016.3 1016.3 0.2
05/10:00pm 15.8 15.1 13.1 84 1.5 WNW 9 13 5 7 1016.2 1016.2 0.2

Other formats

Comma delimited format used in spreadsheet applications
http://www.bom.gov.au/fwo/IDW60801/IDW60801.94612.axf

JavaScript Object Notation format (JSON) in row-major order
http://www.bom.gov.au/fwo/IDW60801/IDW60801.94612.json

Data quality

Most of these data are generated automatically and are frequently updated. Quality checks on data are not normally performed. It is possible for incorrect values to appear. Refer to information at About Latest Weather Observations and please check the disclaimer before using these data.